createdAt,value
2017-11-07T00:00:46.238Z,71.10
2017-11-07T00:03:13.749Z,71.10
2017-11-07T00:05:41.279Z,71.20
2017-11-07T00:08:08.787Z,71.20
2017-11-07T00:10:36.272Z,71.20
2017-11-07T00:13:04.567Z,71.40
2017-11-07T00:15:32.070Z,71.30
2017-11-07T00:17:59.570Z,71.20
2017-11-07T00:20:27.870Z,71.10
2017-11-07T00:22:55.376Z,71.10
2017-11-07T00:25:22.896Z,71.00
2017-11-07T00:27:50.430Z,71.20
2017-11-07T00:30:17.963Z,71.30
2017-11-07T00:32:45.462Z,71.70
2017-11-07T00:35:12.952Z,71.90
2017-11-07T00:37:40.486Z,71.90
2017-11-07T00:40:07.986Z,72.10
2017-11-07T00:42:35.504Z,72.00
2017-11-07T00:45:03.035Z,71.70
2017-11-07T00:47:30.536Z,71.80
2017-11-07T00:49:58.074Z,71.80
2017-11-07T00:52:25.588Z,71.80
2017-11-07T00:54:53.863Z,71.60
2017-11-07T00:57:22.133Z,71.90
2017-11-07T00:59:50.429Z,71.80
2017-11-07T01:02:17.931Z,71.80
2017-11-07T01:04:45.430Z,71.80
2017-11-07T01:07:13.721Z,71.70
2017-11-07T01:09:41.309Z,71.70
2017-11-07T01:12:08.838Z,71.80
2017-11-07T01:14:36.341Z,71.50
2017-11-07T01:17:03.827Z,71.70
2017-11-07T01:19:32.137Z,70.90
2017-11-07T01:21:59.637Z,71.40
2017-11-07T01:24:27.183Z,71.30
2017-11-07T01:26:54.700Z,71.40
2017-11-07T01:29:22.184Z,71.40
2017-11-07T01:31:49.705Z,71.40
2017-11-07T01:34:17.965Z,71.70
2017-11-07T01:36:45.474Z,71.70
2017-11-07T01:39:12.985Z,71.60
2017-11-07T01:41:41.278Z,71.80
2017-11-07T01:44:08.772Z,71.80
2017-11-07T01:46:36.261Z,71.80
2017-11-07T01:49:03.783Z,72.40
2017-11-07T01:51:31.275Z,71.70
2017-11-07T01:53:58.807Z,71.70
2017-11-07T01:56:26.300Z,72.60
2017-11-07T01:58:54.561Z,72.00
2017-11-07T02:01:22.079Z,71.90
2017-11-07T02:03:49.588Z,71.90
2017-11-07T02:06:17.879Z,72.20
2017-11-07T02:08:46.128Z,72.30
2017-11-07T02:11:13.661Z,72.20
2017-11-07T02:13:41.159Z,72.10
2017-11-07T02:16:09.478Z,72.30
2017-11-07T02:18:36.969Z,72.20
2017-11-07T02:21:04.467Z,72.50
2017-11-07T02:23:31.997Z,72.50
2017-11-07T02:26:00.259Z,72.60
2017-11-07T02:28:27.806Z,72.40
2017-11-07T02:30:55.334Z,72.70
2017-11-07T02:33:22.836Z,72.70
2017-11-07T02:35:50.386Z,72.70
2017-11-07T02:38:17.900Z,72.80
2017-11-07T02:40:45.413Z,73.50
2017-11-07T02:43:12.938Z,72.90
2017-11-07T02:45:40.460Z,73.00
2017-11-07T02:48:07.997Z,73.00
2017-11-07T02:50:36.291Z,73.20
2017-11-07T02:53:03.875Z,73.20
2017-11-07T02:55:31.401Z,73.20
2017-11-07T02:57:59.828Z,73.10
2017-11-07T03:00:27.342Z,73.10
2017-11-07T03:02:55.617Z,73.50
2017-11-07T03:05:23.921Z,73.50
2017-11-07T03:07:51.437Z,73.50
2017-11-07T03:10:19.729Z,73.50
2017-11-07T03:12:47.225Z,73.50
2017-11-07T03:15:14.757Z,73.50
2017-11-07T03:17:42.256Z,73.40
2017-11-07T03:20:09.768Z,73.50
2017-11-07T03:22:37.296Z,73.50
2017-11-07T03:25:05.574Z,73.70
2017-11-07T03:27:33.867Z,73.70
2017-11-07T03:30:01.365Z,73.70
2017-11-07T03:32:28.861Z,73.70
2017-11-07T03:34:57.155Z,73.50
2017-11-07T03:37:24.657Z,73.40
2017-11-07T03:39:52.172Z,73.60
2017-11-07T03:42:19.665Z,73.70
2017-11-07T03:44:47.157Z,73.70
2017-11-07T03:47:14.680Z,73.80
2017-11-07T03:49:42.180Z,74.00
2017-11-07T03:52:10.468Z,74.00
2017-11-07T03:54:38.732Z,73.90
2017-11-07T03:57:07.033Z,73.80
2017-11-07T03:59:34.594Z,73.70
2017-11-07T04:02:02.151Z,73.70
2017-11-07T04:04:29.676Z,73.80
2017-11-07T04:06:57.180Z,73.80
2017-11-07T04:09:24.712Z,73.80
2017-11-07T04:11:52.976Z,73.70
2017-11-07T04:14:21.258Z,73.80
2017-11-07T04:16:49.547Z,74.00
2017-11-07T04:19:17.042Z,74.00
2017-11-07T04:21:44.578Z,74.10
2017-11-07T04:24:12.144Z,74.40
2017-11-07T04:26:39.672Z,74.70
2017-11-07T04:29:07.944Z,75.10
2017-11-07T04:31:36.212Z,75.70
2017-11-07T04:34:04.499Z,75.90
2017-11-07T04:36:32.065Z,75.80
2017-11-07T04:38:59.593Z,76.30
2017-11-07T04:41:27.105Z,76.50
2017-11-07T04:43:54.641Z,76.10
2017-11-07T04:46:22.149Z,77.10
2017-11-07T04:48:49.745Z,77.00
2017-11-07T04:51:18.130Z,77.50
2017-11-07T04:53:45.653Z,77.40
2017-11-07T04:56:13.180Z,77.60
2017-11-07T04:58:40.672Z,77.70
2017-11-07T05:01:08.172Z,77.60
2017-11-07T05:03:35.692Z,77.00
2017-11-07T05:06:03.974Z,78.00
2017-11-07T05:08:31.529Z,77.90
2017-11-07T05:10:59.799Z,78.00
2017-11-07T05:13:28.080Z,78.00
2017-11-07T05:15:56.380Z,78.00
2017-11-07T05:18:23.895Z,78.00
2017-11-07T05:20:51.439Z,78.10
2017-11-07T05:23:18.941Z,78.20
2017-11-07T05:25:47.204Z,78.30
2017-11-07T05:28:15.490Z,78.30
2017-11-07T05:30:42.995Z,78.20
2017-11-07T05:33:10.537Z,78.00
2017-11-07T05:35:38.029Z,77.90
2017-11-07T05:38:05.538Z,77.70
2017-11-07T05:40:33.092Z,77.60
2017-11-07T05:43:00.592Z,78.00
2017-11-07T05:45:28.121Z,77.80
2017-11-07T05:47:55.629Z,77.90
2017-11-07T05:50:23.919Z,79.10
2017-11-07T05:52:52.196Z,78.30
2017-11-07T05:55:20.471Z,78.40
2017-11-07T05:57:48.788Z,78.40
2017-11-07T06:00:16.297Z,78.40
2017-11-07T06:02:44.559Z,78.30
2017-11-07T06:05:12.108Z,78.20
2017-11-07T06:07:39.631Z,78.20
2017-11-07T06:10:07.148Z,78.20
2017-11-07T06:12:35.561Z,78.10
2017-11-07T06:15:03.086Z,78.10
2017-11-07T06:17:31.364Z,78.10
2017-11-07T06:19:59.633Z,77.90
2017-11-07T06:22:27.197Z,77.80
2017-11-07T06:24:55.469Z,77.70
2017-11-07T06:27:23.766Z,77.90
2017-11-07T06:29:51.332Z,77.90
2017-11-07T06:32:18.852Z,77.90
2017-11-07T06:34:47.150Z,78.00
2017-11-07T06:37:14.656Z,78.00
2017-11-07T06:39:42.196Z,78.00
2017-11-07T06:42:09.694Z,77.90
2017-11-07T06:44:37.211Z,77.90
2017-11-07T06:47:04.751Z,77.90
2017-11-07T06:49:32.280Z,78.10
2017-11-07T06:52:00.587Z,77.90
2017-11-07T06:54:28.153Z,77.80
2017-11-07T06:56:55.648Z,77.80
2017-11-07T06:59:23.180Z,77.70
2017-11-07T07:01:50.694Z,77.90
2017-11-07T07:04:18.986Z,77.90
2017-11-07T07:06:46.490Z,77.80
2017-11-07T07:09:14.001Z,77.90
2017-11-07T07:11:41.532Z,78.00
2017-11-07T07:14:09.805Z,77.90
2017-11-07T07:16:38.110Z,77.90
2017-11-07T07:19:05.644Z,77.80
2017-11-07T07:21:33.955Z,78.10
2017-11-07T07:24:01.486Z,78.10
2017-11-07T07:26:29.772Z,78.10
2017-11-07T07:28:57.330Z,77.90
2017-11-07T07:31:24.828Z,78.10
2017-11-07T07:33:52.334Z,78.10
2017-11-07T07:36:20.629Z,78.10
2017-11-07T07:38:48.179Z,78.10
2017-11-07T07:41:15.676Z,78.20
2017-11-07T07:43:43.181Z,78.30
2017-11-07T07:46:11.479Z,78.50
2017-11-07T07:48:38.992Z,78.50
2017-11-07T07:51:06.516Z,78.60
2017-11-07T07:53:34.042Z,79.40
2017-11-07T07:56:01.556Z,79.10
2017-11-07T07:58:29.057Z,79.30
2017-11-07T08:00:56.584Z,79.40
2017-11-07T08:03:24.864Z,79.50
2017-11-07T08:05:52.398Z,79.50
2017-11-07T08:08:19.915Z,79.70
2017-11-07T08:10:47.431Z,79.70
2017-11-07T08:13:14.968Z,79.90
2017-11-07T08:15:42.468Z,80.00
2017-11-07T08:18:10.740Z,80.00
2017-11-07T08:20:39.029Z,80.00
2017-11-07T08:23:06.648Z,80.00
2017-11-07T08:25:34.186Z,80.20
2017-11-07T08:28:01.701Z,80.30
2017-11-07T08:30:29.371Z,80.20
2017-11-07T08:32:56.920Z,80.00
2017-11-07T08:35:24.422Z,79.90
2017-11-07T08:37:51.956Z,79.70
2017-11-07T08:40:19.471Z,79.80
2017-11-07T08:42:47.786Z,79.50
2017-11-07T08:45:15.341Z,79.50
2017-11-07T08:47:42.848Z,79.30
2017-11-07T08:50:10.394Z,79.50
2017-11-07T08:52:37.898Z,79.40
2017-11-07T08:55:05.457Z,79.40
2017-11-07T08:57:32.982Z,79.30
2017-11-07T09:00:00.511Z,79.30
2017-11-07T09:02:28.029Z,79.30
2017-11-07T09:04:55.537Z,79.10
2017-11-07T09:07:23.063Z,79.00
2017-11-07T09:09:50.562Z,78.80
2017-11-07T09:12:18.096Z,79.30
2017-11-07T09:14:45.620Z,78.10
2017-11-07T09:17:13.151Z,78.00
2017-11-07T09:19:40.661Z,78.10
2017-11-07T09:22:08.186Z,78.10
2017-11-07T09:24:36.462Z,77.90
2017-11-07T09:27:04.736Z,77.90
2017-11-07T09:29:33.056Z,77.80
2017-11-07T09:32:00.584Z,77.80
2017-11-07T09:34:28.068Z,77.70
2017-11-07T09:36:55.579Z,78.00
2017-11-07T09:39:23.876Z,78.00
2017-11-07T09:41:51.388Z,78.00
2017-11-07T09:44:18.933Z,77.70
2017-11-07T09:46:46.446Z,77.40
2017-11-07T09:49:14.014Z,77.40
2017-11-07T09:51:41.549Z,77.50
2017-11-07T09:54:09.835Z,77.40
2017-11-07T09:56:37.382Z,77.40
2017-11-07T09:59:05.652Z,77.30
2017-11-07T10:01:33.957Z,77.20
2017-11-07T10:04:01.474Z,77.20
2017-11-07T10:06:29.794Z,77.30
2017-11-07T10:08:57.317Z,77.10
2017-11-07T10:11:25.720Z,77.20
2017-11-07T10:13:53.241Z,77.20
2017-11-07T10:16:21.530Z,76.70
2017-11-07T10:18:49.828Z,76.60
2017-11-07T10:21:17.332Z,76.60
2017-11-07T10:23:44.846Z,76.30
2017-11-07T10:26:12.421Z,76.40
2017-11-07T10:28:39.964Z,76.60
2017-11-07T10:31:07.487Z,76.40
2017-11-07T10:33:35.768Z,76.70
2017-11-07T10:36:04.081Z,76.70
2017-11-07T10:38:31.589Z,76.70
2017-11-07T10:40:59.100Z,76.50
2017-11-07T10:43:26.672Z,76.50
2017-11-07T10:45:54.198Z,76.50
2017-11-07T10:48:21.724Z,76.30
2017-11-07T10:50:50.000Z,77.00
2017-11-07T10:53:18.313Z,76.60
2017-11-07T10:55:45.825Z,76.20
2017-11-07T10:58:14.094Z,76.40
2017-11-07T11:00:41.661Z,76.40
2017-11-07T11:03:09.161Z,76.20
2017-11-07T11:05:36.673Z,76.50
2017-11-07T11:08:04.206Z,76.50
2017-11-07T11:10:31.745Z,76.50
2017-11-07T11:12:59.275Z,76.10
2017-11-07T11:15:27.552Z,76.10
2017-11-07T11:17:55.097Z,76.10
2017-11-07T11:20:23.378Z,76.40
2017-11-07T11:22:51.668Z,76.10
2017-11-07T11:25:19.200Z,76.10
2017-11-07T11:27:47.464Z,76.10
2017-11-07T11:30:14.989Z,76.90
2017-11-07T11:32:42.524Z,76.30
2017-11-07T11:35:10.052Z,76.10
2017-11-07T11:37:38.324Z,76.60
2017-11-07T11:40:06.624Z,76.50
2017-11-07T11:42:34.131Z,76.50
2017-11-07T11:45:01.654Z,76.20
2017-11-07T11:47:29.214Z,76.30
2017-11-07T11:49:56.764Z,76.20
2017-11-07T11:52:24.309Z,76.30
2017-11-07T11:54:51.823Z,76.20
2017-11-07T11:57:19.344Z,76.10
2017-11-07T11:59:46.886Z,76.20
2017-11-07T12:02:14.433Z,76.20
2017-11-07T12:04:41.981Z,76.20
2017-11-07T12:07:10.248Z,75.20
2017-11-07T12:09:37.827Z,75.20
2017-11-07T12:12:06.109Z,75.00
2017-11-07T12:14:33.623Z,75.00
2017-11-07T12:17:01.168Z,75.00
2017-11-07T12:19:28.689Z,74.80
2017-11-07T12:21:56.232Z,74.90
2017-11-07T12:24:23.746Z,75.20
2017-11-07T12:26:51.285Z,75.50
2017-11-07T12:29:18.803Z,75.50
2017-11-07T12:31:47.092Z,75.30
2017-11-07T12:34:14.616Z,75.20
2017-11-07T12:36:42.162Z,75.20
2017-11-07T12:39:09.725Z,75.30
2017-11-07T12:41:37.339Z,75.60
2017-11-07T12:44:04.878Z,75.60
2017-11-07T12:46:32.401Z,75.70
2017-11-07T12:49:00.007Z,75.80
2017-11-07T12:54:32.976Z,76.80
2017-11-07T12:57:01.322Z,77.20
2017-11-07T12:59:28.837Z,76.30
2017-11-07T13:01:56.386Z,76.20
2017-11-07T13:04:24.657Z,76.40
2017-11-07T13:06:52.934Z,76.30
2017-11-07T13:09:21.228Z,76.10
2017-11-07T13:11:48.741Z,76.00
2017-11-07T13:14:16.284Z,76.00
2017-11-07T13:16:43.800Z,75.90
2017-11-07T13:19:11.333Z,76.00
2017-11-07T13:21:38.872Z,76.10
2017-11-07T13:24:06.381Z,76.00
2017-11-07T13:26:33.880Z,76.00
2017-11-07T13:29:01.429Z,75.90
2017-11-07T13:31:28.933Z,76.10
2017-11-07T13:33:57.201Z,76.30
2017-11-07T13:36:24.753Z,76.30
2017-11-07T13:38:53.023Z,76.30
2017-11-07T13:41:20.569Z,76.20
2017-11-07T13:43:48.174Z,75.60
2017-11-07T13:46:15.734Z,76.20
2017-11-07T13:48:43.269Z,76.30
2017-11-07T13:51:11.573Z,76.30
2017-11-07T13:53:39.113Z,76.30
2017-11-07T13:56:06.630Z,76.30
2017-11-07T13:58:34.177Z,76.50
2017-11-07T14:01:01.700Z,76.50
2017-11-07T14:03:29.215Z,76.50
2017-11-07T14:05:56.765Z,76.70
2017-11-07T14:08:25.056Z,76.60
2017-11-07T14:10:52.591Z,76.50
2017-11-07T14:13:20.129Z,76.60
2017-11-07T14:15:47.676Z,76.70
2017-11-07T14:18:15.204Z,76.50
2017-11-07T14:20:43.506Z,76.50
2017-11-07T14:23:11.046Z,76.50
2017-11-07T14:25:38.558Z,76.50
2017-11-07T14:28:06.096Z,76.50
2017-11-07T14:30:33.620Z,76.50
2017-11-07T14:33:01.160Z,76.50
2017-11-07T14:35:29.434Z,76.60
2017-11-07T14:37:57.716Z,76.60
2017-11-07T14:40:26.038Z,76.70
2017-11-07T14:42:53.562Z,76.70
2017-11-07T14:45:21.247Z,78.00
2017-11-07T14:47:48.769Z,78.30
2017-11-07T14:50:17.057Z,78.50
2017-11-07T14:52:44.582Z,78.40
2017-11-07T14:55:12.165Z,77.20
2017-11-07T14:57:39.717Z,77.10
2017-11-07T15:00:08.014Z,78.10
2017-11-07T15:02:35.538Z,78.10
2017-11-07T15:05:03.821Z,77.00
2017-11-07T15:07:32.154Z,77.00
2017-11-07T15:09:59.650Z,77.00
2017-11-07T15:12:27.945Z,77.40
2017-11-07T15:14:55.515Z,77.10
2017-11-07T15:17:23.092Z,77.00
2017-11-07T15:19:50.619Z,77.00
2017-11-07T15:22:18.942Z,76.80
2017-11-07T15:24:46.508Z,76.70
2017-11-07T15:27:14.050Z,76.90
2017-11-07T15:29:41.582Z,76.70
2017-11-07T15:32:09.107Z,76.80
2017-11-07T15:34:37.386Z,77.40
2017-11-07T15:37:05.702Z,77.40
2017-11-07T15:39:33.193Z,76.90
2017-11-07T15:42:00.819Z,77.10
2017-11-07T15:44:28.361Z,77.40
2017-11-07T15:46:55.896Z,78.60
2017-11-07T15:49:24.170Z,79.00
2017-11-07T15:51:52.462Z,79.40
2017-11-07T15:54:20.123Z,78.90
2017-11-07T15:56:47.660Z,78.80
2017-11-07T15:59:15.170Z,77.80
2017-11-07T16:01:42.701Z,78.40
2017-11-07T16:04:10.982Z,79.20
2017-11-07T16:06:38.506Z,79.20
2017-11-07T16:09:06.077Z,78.40
2017-11-07T16:11:34.416Z,79.90
2017-11-07T16:14:01.933Z,79.80
2017-11-07T16:16:29.581Z,80.20
2017-11-07T16:18:57.866Z,80.70
2017-11-07T16:21:25.396Z,80.70
2017-11-07T16:23:52.938Z,81.10
2017-11-07T16:26:20.462Z,82.30
2017-11-07T16:28:47.991Z,81.70
2017-11-07T16:31:15.518Z,81.90
2017-11-07T16:33:43.802Z,83.40
2017-11-07T16:36:11.337Z,82.50
2017-11-07T16:38:38.863Z,82.70
2017-11-07T16:41:06.385Z,83.10
2017-11-07T16:43:34.679Z,83.70
2017-11-07T16:46:02.252Z,83.70
2017-11-07T16:48:29.769Z,84.10
2017-11-07T16:50:58.060Z,85.40
2017-11-07T16:53:26.387Z,84.70
2017-11-07T16:55:53.929Z,84.70
2017-11-07T16:58:21.483Z,84.80
2017-11-07T17:00:49.057Z,85.10
2017-11-07T17:03:16.602Z,85.50
2017-11-07T17:05:44.169Z,85.80
2017-11-07T17:08:11.673Z,85.90
2017-11-07T17:10:39.953Z,87.40
2017-11-07T17:13:08.250Z,86.70
2017-11-07T17:15:35.872Z,86.70
2017-11-07T17:18:03.432Z,86.60
2017-11-07T17:20:31.765Z,86.60
2017-11-07T17:22:59.284Z,86.60
2017-11-07T17:25:27.593Z,86.70
2017-11-07T17:27:55.108Z,86.60
2017-11-07T17:30:23.427Z,86.80
2017-11-07T17:32:50.961Z,86.90
2017-11-07T17:35:19.267Z,87.80
2017-11-07T17:37:46.773Z,87.10
2017-11-07T17:40:15.089Z,87.40
2017-11-07T17:42:42.623Z,87.40
2017-11-07T17:45:10.913Z,87.30
2017-11-07T17:47:38.461Z,87.30
2017-11-07T17:50:06.869Z,87.10
2017-11-07T17:52:34.421Z,87.10
2017-11-07T17:55:01.937Z,87.20
2017-11-07T17:57:29.460Z,87.30
2017-11-07T17:59:57.028Z,88.20
2017-11-07T18:02:24.543Z,87.70
2017-11-07T18:04:52.134Z,87.70
2017-11-07T18:07:19.641Z,88.10
2017-11-07T18:09:47.948Z,87.90
2017-11-07T18:12:15.450Z,87.80
2017-11-07T18:14:42.993Z,87.60
2017-11-07T18:17:10.538Z,87.50
2017-11-07T18:19:38.056Z,87.50
2017-11-07T18:22:06.426Z,87.60
2017-11-07T18:24:34.696Z,87.60
2017-11-07T18:27:03.013Z,87.70
2017-11-07T18:29:30.580Z,87.70
2017-11-07T18:31:58.135Z,87.60
2017-11-07T18:34:25.694Z,87.70
2017-11-07T18:36:53.230Z,87.80
2017-11-07T18:39:20.779Z,87.90
2017-11-07T18:41:48.282Z,88.20
2017-11-07T18:44:15.837Z,88.30
2017-11-07T18:46:45.158Z,88.30
2017-11-07T18:49:12.769Z,88.50
2017-11-07T18:51:40.366Z,88.50
2017-11-07T18:54:07.905Z,88.60
2017-11-07T18:56:35.451Z,88.60
2017-11-07T18:59:03.001Z,88.60
2017-11-07T19:01:30.901Z,88.70
2017-11-07T19:03:58.535Z,88.90
2017-11-07T19:06:26.103Z,88.80
2017-11-07T19:08:54.573Z,88.80
2017-11-07T19:11:22.146Z,88.80
2017-11-07T19:13:49.690Z,89.00
2017-11-07T19:16:17.225Z,89.00
2017-11-07T19:18:44.930Z,89.20
2017-11-07T19:21:12.582Z,89.10
2017-11-07T19:23:40.167Z,89.40
2017-11-07T19:26:08.478Z,89.40
2017-11-07T19:28:36.794Z,89.50
2017-11-07T19:31:04.332Z,89.40
2017-11-07T19:33:31.972Z,89.50
2017-11-07T19:36:00.791Z,89.40
2017-11-07T19:38:28.315Z,89.40
2017-11-07T19:40:56.666Z,89.60
2017-11-07T19:43:24.214Z,89.60
2017-11-07T19:45:51.751Z,89.60
2017-11-07T19:48:19.293Z,89.80
2017-11-07T19:50:46.892Z,89.80
2017-11-07T19:53:14.527Z,89.70
2017-11-07T19:55:42.216Z,89.70
2017-11-07T19:58:09.731Z,89.80
2017-11-07T20:00:37.338Z,89.90
2017-11-07T20:03:04.905Z,89.90
2017-11-07T20:05:32.441Z,89.90
2017-11-07T20:08:00.109Z,89.90
2017-11-07T20:10:27.622Z,89.90
2017-11-07T20:12:55.169Z,89.90
2017-11-07T20:15:22.781Z,89.90
2017-11-07T20:17:50.380Z,90.00
2017-11-07T20:20:18.718Z,89.70
2017-11-07T20:22:46.311Z,89.70
2017-11-07T20:25:14.639Z,89.70
2017-11-07T20:27:42.964Z,89.60
2017-11-07T20:30:11.275Z,89.80
2017-11-07T20:32:38.917Z,89.70
2017-11-07T20:35:06.452Z,89.80
2017-11-07T20:37:34.774Z,89.90
2017-11-07T20:40:02.294Z,89.90
2017-11-07T20:42:30.633Z,89.80
2017-11-07T20:44:58.142Z,89.80
2017-11-07T20:47:25.722Z,89.70
2017-11-07T20:49:53.325Z,89.80
2017-11-07T20:52:21.608Z,90.10
2017-11-07T20:54:49.928Z,90.10
2017-11-07T20:57:17.517Z,90.00
2017-11-07T20:59:45.063Z,90.10
2017-11-07T21:02:12.666Z,90.10
2017-11-07T21:04:41.289Z,90.00
2017-11-07T21:07:08.862Z,90.00
2017-11-07T21:09:36.488Z,89.90
2017-11-07T21:12:04.031Z,89.80
2017-11-07T21:14:32.856Z,89.80
2017-11-07T21:17:00.401Z,89.80
2017-11-07T21:19:32.948Z,89.60
2017-11-07T21:22:01.563Z,90.00
2017-11-07T21:24:29.398Z,90.00
2017-11-07T21:26:57.684Z,90.10
2017-11-07T21:29:26.008Z,90.10
2017-11-07T21:31:53.539Z,90.10
2017-11-07T21:34:22.909Z,90.10
2017-11-07T21:36:51.189Z,90.10
2017-11-07T21:39:19.528Z,90.10
2017-11-07T21:41:47.263Z,90.10
2017-11-07T21:44:14.822Z,90.20
2017-11-07T21:46:42.416Z,90.10
2017-11-07T21:49:09.957Z,90.10
2017-11-07T21:51:37.618Z,90.10
2017-11-07T21:54:05.360Z,90.10
2017-11-07T21:56:33.115Z,90.10
2017-11-07T21:59:00.621Z,90.10
2017-11-07T22:01:28.238Z,90.00
2017-11-07T22:03:55.913Z,90.00
2017-11-07T22:06:23.665Z,90.00
2017-11-07T22:08:51.224Z,90.00
2017-11-07T22:11:18.856Z,89.90
2017-11-07T22:13:47.319Z,89.70
2017-11-07T22:16:14.993Z,89.70
2017-11-07T22:18:43.269Z,89.90
2017-11-07T22:21:11.576Z,89.60
2017-11-07T22:23:41.898Z,89.60
2017-11-07T22:26:09.443Z,89.60
2017-11-07T22:28:36.958Z,89.50
2017-11-07T22:31:04.533Z,90.50
2017-11-07T22:33:32.833Z,89.70
2017-11-07T22:36:00.787Z,89.60
2017-11-07T22:38:29.087Z,89.50
2017-11-07T22:40:56.604Z,89.50
2017-11-07T22:43:24.160Z,89.50
2017-11-07T22:45:53.185Z,89.20
2017-11-07T22:48:20.724Z,89.00
2017-11-07T22:50:49.044Z,88.80
2017-11-07T22:53:16.544Z,88.80
2017-11-07T22:55:44.074Z,88.90
2017-11-07T22:58:11.597Z,88.80
2017-11-07T23:00:39.158Z,88.80
2017-11-07T23:03:06.692Z,88.90
2017-11-07T23:05:35.071Z,89.30
2017-11-07T23:08:03.358Z,89.50
2017-11-07T23:10:30.875Z,89.50
2017-11-07T23:12:58.439Z,89.30
2017-11-07T23:15:25.962Z,89.20
2017-11-07T23:17:53.530Z,89.00
2017-11-07T23:20:21.048Z,89.10
2017-11-07T23:22:48.549Z,89.20
2017-11-07T23:25:16.164Z,89.40
2017-11-07T23:27:43.690Z,89.30
2017-11-07T23:30:11.274Z,89.40
2017-11-07T23:32:38.794Z,89.20
2017-11-07T23:35:06.409Z,89.10
2017-11-07T23:37:33.969Z,88.90
2017-11-07T23:40:01.496Z,88.80
2017-11-07T23:42:29.866Z,88.70
2017-11-07T23:44:57.367Z,88.80
2017-11-07T23:47:24.897Z,89.60
2017-11-07T23:49:52.397Z,88.90
2017-11-07T23:52:19.931Z,89.00
2017-11-07T23:54:47.461Z,89.10
2017-11-07T23:57:15.792Z,89.40
2017-11-07T23:59:43.348Z,89.30
